Terminal Aerodrome Forecast
Issued by NWS

Home | Current Version | Previous Version | Text Only | Print | Product List | Glossary On
Versions: 1 2 3 4 5 6 7 8 9 10 11 12 13 14 15
000
FTUS43 KICT 281100
TAFSLN
TAF
KSLN 281120Z 2812/2912 VRB06KT P6SM SCT200
     FM281500 36007KT P6SM SCT150
     FM290100 VRB05KT P6SM SCT100=

USA.gov is the U.S. government's official web portal to all federal, state and local government web resources and services.